Time;durP1;ratioP1;P1;durP2;ratioP2;P2;SDS_P1;SDS_P2;PMS_P1;PMS_P2;Temp;Humidity;BMP_temperature;BMP_pressure;BME280_temperature;BME280_humidity;BME280_pressure;Samples;Min_cycle;Max_cycle;Signal;HPM_P1;HPM_P2
2023/03/20 00:00:30;;;;;;;;;;;5.70;88.20;;;;;;5138621;28;19917;-67
2023/03/20 00:03:02;;;;;;;;;;;5.80;67.30;;;;;;5157127;28;19929;-75
2023/03/20 00:05:35;;;;;;;;;;;5.80;51.70;;;;;;5134931;28;20389;-71
2023/03/20 00:08:11;;;;;;;;;;;5.90;25.90;;;;;;5144751;28;19925;-71
2023/03/20 00:10:49;;;;;;;;;;;6.00;24.60;;;;;;5166083;28;19921;-69
2023/03/20 00:13:42;;;;;;;;;;;6.00;20.90;;;;;;5173177;28;19914;-73
2023/03/20 00:16:21;;;;;;;;;;;6.10;10.20;;;;;;5167832;28;19924;-70
2023/03/20 00:18:56;;;;;;;;;;;6.20;1.00;;;;;;5164041;28;20245;-72
2023/03/20 00:21:31;;;;;;;;;;;6.20;1.00;;;;;;5159232;28;20386;-67
2023/03/20 00:24:14;;;;;;;;;;;6.20;1.00;;;;;;5145171;28;19910;-70
2023/03/20 00:26:49;;;;;;;;;;;6.30;1.00;;;;;;5161122;28;20025;-70
2023/03/20 00:29:29;;;;;;;;;;;6.30;1.00;;;;;;5113369;28;20304;-75
2023/03/20 00:32:15;;;;;;;;;;;6.30;1.00;;;;;;5141194;28;19910;-72
2023/03/20 00:34:55;;;;;;;;;;;6.30;1.00;;;;;;5157376;28;19924;-74
2023/03/20 00:37:29;;;;;;;;;;;6.30;1.00;;;;;;5187880;28;19944;-68
2023/03/20 00:40:01;;;;;;;;;;;6.30;1.00;;;;;;5144364;28;19944;-67
2023/03/20 00:42:38;;;;;;;;;;;6.20;1.00;;;;;;5145297;28;20253;-73
2023/03/20 00:45:16;;;;;;;;;;;6.20;1.00;;;;;;5139799;28;19913;-74
2023/03/20 00:47:57;;;;;;;;;;;6.30;1.00;;;;;;5141766;28;19929;-75
2023/03/20 00:50:40;;;;;;;;;;;6.30;4.40;;;;;;5134772;28;19917;-69
2023/03/20 00:53:19;;;;;;;;;;;6.40;14.40;;;;;;5124017;28;19924;-68
2023/03/20 00:55:52;;;;;;;;;;;6.40;14.70;;;;;;5168181;28;20092;-71
2023/03/20 00:58:27;;;;;;;;;;;6.40;1.00;;;;;;5161178;28;19922;-71
2023/03/20 01:03:44;;;;;;;;;;;6.30;14.10;;;;;;5172498;23;19925;-68
2023/03/20 01:06:18;;;;;;;;;;;6.20;1.30;;;;;;5148700;28;19917;-71
2023/03/20 01:08:49;;;;;;;;;;;6.20;15.00;;;;;;5165307;28;19940;-72
2023/03/20 01:11:22;;;;;;;;;;;6.10;23.10;;;;;;5165644;28;19916;-70
2023/03/20 01:13:59;;;;;;;;;;;6.20;19.50;;;;;;5147828;28;20450;-67
2023/03/20 01:16:33;;;;;;;;;;;6.20;19.50;;;;;;5146223;28;19910;-72
2023/03/20 01:19:05;;;;;;;;;;;6.00;47.00;;;;;;5139875;28;20129;-69
2023/03/20 01:21:36;;;;;;;;;;;6.00;60.10;;;;;;5166582;28;20395;-68
2023/03/20 01:24:12;;;;;;;;;;;5.80;77.40;;;;;;5146661;28;19919;-70
2023/03/20 01:26:45;;;;;;;;;;;5.80;99.90;;;;;;5147685;28;19924;-74
2023/03/20 01:29:24;;;;;;;;;;;5.70;99.90;;;;;;5179211;28;19921;-70
2023/03/20 01:31:58;;;;;;;;;;;5.60;99.90;;;;;;5177304;28;19924;-66
2023/03/20 01:34:29;;;;;;;;;;;5.60;99.90;;;;;;5160823;28;19913;-67
2023/03/20 01:37:06;;;;;;;;;;;5.70;99.90;;;;;;5180155;28;19941;-73
2023/03/20 01:39:38;;;;;;;;;;;5.70;99.90;;;;;;5154104;28;20121;-65
2023/03/20 01:42:17;;;;;;;;;;;5.80;99.90;;;;;;5163211;28;19915;-68
2023/03/20 01:44:54;;;;;;;;;;;6.10;99.90;;;;;;5168860;28;19917;-68
2023/03/20 01:47:26;;;;;;;;;;;6.30;99.90;;;;;;5146980;28;19921;-69
2023/03/20 01:50:22;;;;;;;;;;;6.20;99.90;;;;;;5130857;28;19917;-73
2023/03/20 01:53:02;;;;;;;;;;;6.20;99.90;;;;;;5164549;28;20418;-69
2023/03/20 01:55:39;;;;;;;;;;;6.40;99.90;;;;;;5131069;28;20260;-69
2023/03/20 01:58:22;;;;;;;;;;;6.40;99.90;;;;;;5131755;28;19940;-73
2023/03/20 02:00:58;;;;;;;;;;;6.20;99.90;;;;;;5193929;28;20199;-72
2023/03/20 02:03:33;;;;;;;;;;;6.20;99.90;;;;;;5185188;28;19913;-68
2023/03/20 02:06:05;;;;;;;;;;;6.30;99.90;;;;;;5154562;28;20232;-69
2023/03/20 02:08:42;;;;;;;;;;;6.40;99.90;;;;;;5151229;28;19917;-69
2023/03/20 02:11:16;;;;;;;;;;;7.00;99.90;;;;;;5199461;28;20251;-73
2023/03/20 02:13:53;;;;;;;;;;;7.40;99.90;;;;;;5151643;28;20370;-73
2023/03/20 02:16:25;;;;;;;;;;;7.70;99.90;;;;;;5148137;28;19927;-74
2023/03/20 02:18:57;;;;;;;;;;;7.90;99.90;;;;;;5134451;28;19909;-72
2023/03/20 02:22:05;;;;;;;;;;;8.20;48.40;;;;;;5183446;28;19913;-70
2023/03/20 02:24:58;;;;;;;;;;;8.30;21.60;;;;;;5089379;29;20134;-69
2023/03/20 02:27:58;;;;;;;;;;;8.20;21.20;;;;;;5123562;28;19916;-71
2023/03/20 02:30:54;;;;;;;;;;;8.20;55.20;;;;;;5106519;28;19914;-70
2023/03/20 02:34:09;;;;;;;;;;;8.30;50.00;;;;;;5116579;29;19924;-69
2023/03/20 02:36:50;;;;;;;;;;;8.20;56.10;;;;;;5101536;29;19925;-69
2023/03/20 02:39:51;;;;;;;;;;;8.40;93.90;;;;;;5084757;29;20371;-67
2023/03/20 02:42:37;;;;;;;;;;;8.30;99.90;;;;;;5109325;29;19925;-67
2023/03/20 02:45:28;;;;;;;;;;;8.40;99.90;;;;;;5084004;29;20131;-73
2023/03/20 02:48:07;;;;;;;;;;;8.50;99.90;;;;;;5052868;29;20507;-69
2023/03/20 02:51:01;;;;;;;;;;;8.60;99.90;;;;;;5088090;29;19925;-71
2023/03/20 02:53:50;;;;;;;;;;;8.50;99.90;;;;;;5090007;29;20287;-73
2023/03/20 02:56:22;;;;;;;;;;;8.50;96.60;;;;;;5090809;29;19910;-68
2023/03/20 02:59:31;;;;;;;;;;;8.50;99.50;;;;;;5099946;29;19918;-67
2023/03/20 03:02:08;;;;;;;;;;;8.40;99.90;;;;;;5082285;29;19925;-68
2023/03/20 03:04:50;;;;;;;;;;;8.20;99.90;;;;;;5094446;28;20142;-72
2023/03/20 03:07:25;;;;;;;;;;;8.10;99.90;;;;;;5123715;28;20026;-72
2023/03/20 03:10:04;;;;;;;;;;;8.00;99.90;;;;;;5084380;28;19943;-69
2023/03/20 03:12:43;;;;;;;;;;;7.90;99.90;;;;;;5149326;28;19923;-68
2023/03/20 03:15:31;;;;;;;;;;;7.90;99.90;;;;;;5162906;28;19913;-70
2023/03/20 03:18:06;;;;;;;;;;;8.00;99.90;;;;;;5163697;28;19910;-72
2023/03/20 03:20:38;;;;;;;;;;;7.90;99.90;;;;;;5149365;28;19924;-74
2023/03/20 03:23:17;;;;;;;;;;;7.90;99.90;;;;;;5164694;28;19928;-71
2023/03/20 03:25:53;;;;;;;;;;;7.80;99.90;;;;;;5181379;28;19914;-71
2023/03/20 03:28:37;;;;;;;;;;;7.70;99.90;;;;;;5180725;28;19917;-72
2023/03/20 03:31:16;;;;;;;;;;;7.60;99.90;;;;;;5163484;28;19923;-68
2023/03/20 03:33:52;;;;;;;;;;;7.30;99.90;;;;;;5166214;28;19917;-75
2023/03/20 03:36:44;;;;;;;;;;;7.10;99.90;;;;;;5148145;28;19920;-74
2023/03/20 03:39:47;;;;;;;;;;;6.80;99.90;;;;;;5178492;28;19921;-74
2023/03/20 03:42:26;;;;;;;;;;;6.60;99.90;;;;;;5132834;28;19913;-69
2023/03/20 03:45:12;;;;;;;;;;;6.60;99.90;;;;;;5164997;28;20244;-73
2023/03/20 03:48:16;;;;;;;;;;;6.30;99.90;;;;;;5148670;28;19920;-66
2023/03/20 03:50:55;;;;;;;;;;;6.30;99.90;;;;;;5177317;28;20203;-74
2023/03/20 03:54:12;;;;;;;;;;;6.20;99.90;;;;;;5140414;28;19917;-74
2023/03/20 03:56:45;;;;;;;;;;;6.20;99.90;;;;;;5147763;28;19927;-72
2023/03/20 03:59:26;;;;;;;;;;;6.30;99.90;;;;;;5148290;28;19917;-73
2023/03/20 04:01:58;;;;;;;;;;;6.40;99.90;;;;;;5149416;28;19913;-69
2023/03/20 04:04:33;;;;;;;;;;;6.40;99.90;;;;;;5158013;28;19934;-68
2023/03/20 04:07:06;;;;;;;;;;;6.50;99.90;;;;;;5146522;28;19927;-69
2023/03/20 04:09:39;;;;;;;;;;;6.50;99.90;;;;;;5146773;28;19909;-68
2023/03/20 04:12:41;;;;;;;;;;;6.50;99.90;;;;;;5163174;28;19917;-73
2023/03/20 04:15:20;;;;;;;;;;;6.50;99.90;;;;;;5126508;28;19918;-75
2023/03/20 04:17:55;;;;;;;;;;;6.50;99.90;;;;;;5142106;28;19929;-73
2023/03/20 04:20:26;;;;;;;;;;;6.60;99.90;;;;;;5142745;28;20024;-69
2023/03/20 04:23:00;;;;;;;;;;;6.60;99.90;;;;;;5144866;28;19917;-68
2023/03/20 04:25:33;;;;;;;;;;;6.70;99.90;;;;;;5143163;28;19922;-69
2023/03/20 04:28:07;;;;;;;;;;;6.80;99.90;;;;;;5137363;28;19916;-70
2023/03/20 04:30:38;;;;;;;;;;;6.80;99.90;;;;;;5172383;28;19928;-69
2023/03/20 04:33:12;;;;;;;;;;;6.70;99.90;;;;;;5158806;28;19924;-71
2023/03/20 04:35:44;;;;;;;;;;;6.70;99.90;;;;;;5175111;28;19943;-69
2023/03/20 04:38:18;;;;;;;;;;;6.90;99.90;;;;;;5158694;28;20272;-70
2023/03/20 04:40:51;;;;;;;;;;;7.20;99.90;;;;;;5155693;28;20243;-69
2023/03/20 04:43:22;;;;;;;;;;;7.30;99.90;;;;;;5133416;28;19924;-74
2023/03/20 04:46:02;;;;;;;;;;;7.40;99.90;;;;;;5136831;28;19914;-72
2023/03/20 04:48:38;;;;;;;;;;;7.40;99.90;;;;;;5121917;28;19918;-72
2023/03/20 04:51:09;;;;;;;;;;;7.50;99.90;;;;;;5140656;28;19985;-70
2023/03/20 04:53:41;;;;;;;;;;;7.40;99.90;;;;;;5140147;28;19922;-74
2023/03/20 04:56:17;;;;;;;;;;;7.40;99.90;;;;;;5149340;28;19918;-70
2023/03/20 04:58:49;;;;;;;;;;;7.50;99.90;;;;;;5175422;28;19925;-73
2023/03/20 05:01:23;;;;;;;;;;;7.60;99.90;;;;;;5146131;28;19917;-68
2023/03/20 05:03:59;;;;;;;;;;;7.60;99.90;;;;;;5165293;28;19924;-71
2023/03/20 05:06:36;;;;;;;;;;;7.70;99.90;;;;;;5169542;28;19925;-74
2023/03/20 05:09:10;;;;;;;;;;;7.70;99.90;;;;;;5196904;28;19923;-70
2023/03/20 05:11:47;;;;;;;;;;;7.80;99.90;;;;;;5148110;28;19917;-69
2023/03/20 05:14:20;;;;;;;;;;;7.90;99.90;;;;;;5163466;28;19921;-68
2023/03/20 05:16:55;;;;;;;;;;;8.00;99.90;;;;;;5145402;28;19917;-70
2023/03/20 05:19:29;;;;;;;;;;;8.00;99.90;;;;;;5196632;28;19910;-75
2023/03/20 05:22:03;;;;;;;;;;;7.90;99.90;;;;;;5196644;28;19918;-72
2023/03/20 05:24:35;;;;;;;;;;;8.00;99.90;;;;;;5148089;28;19913;-71
2023/03/20 05:27:10;;;;;;;;;;;8.10;99.90;;;;;;5163549;28;19917;-68
2023/03/20 05:29:42;;;;;;;;;;;8.10;99.90;;;;;;5164881;28;20402;-70
2023/03/20 05:32:13;;;;;;;;;;;8.20;99.90;;;;;;5161239;28;19921;-73
2023/03/20 05:34:47;;;;;;;;;;;8.30;99.90;;;;;;5184797;28;19916;-67
2023/03/20 05:37:19;;;;;;;;;;;8.30;99.90;;;;;;5163001;28;19929;-72
2023/03/20 05:39:53;;;;;;;;;;;8.40;99.90;;;;;;5147155;28;20035;-70
2023/03/20 05:42:24;;;;;;;;;;;8.40;99.90;;;;;;5178311;28;19925;-71
2023/03/20 05:44:55;;;;;;;;;;;8.50;99.90;;;;;;5167182;28;20213;-68
2023/03/20 05:47:28;;;;;;;;;;;8.60;99.90;;;;;;5164197;28;19916;-70
2023/03/20 05:50:04;;;;;;;;;;;8.70;99.90;;;;;;5149798;28;20228;-71
2023/03/20 05:52:35;;;;;;;;;;;8.80;99.90;;;;;;5184202;28;20146;-70
2023/03/20 05:55:14;;;;;;;;;;;8.90;99.90;;;;;;5135807;28;20399;-69
2023/03/20 05:57:48;;;;;;;;;;;9.00;99.90;;;;;;5191752;28;19921;-68
2023/03/20 06:00:25;;;;;;;;;;;9.00;99.90;;;;;;5155284;28;19919;-69
2023/03/20 06:02:56;;;;;;;;;;;9.10;99.90;;;;;;5166805;28;19932;-67
2023/03/20 06:05:29;;;;;;;;;;;9.20;99.90;;;;;;5136540;28;19925;-69
2023/03/20 06:08:04;;;;;;;;;;;9.20;99.90;;;;;;5134557;28;19914;-71
2023/03/20 06:10:38;;;;;;;;;;;9.30;99.90;;;;;;5167253;28;19917;-71
2023/03/20 06:13:15;;;;;;;;;;;9.50;99.90;;;;;;5151215;28;19952;-69
2023/03/20 06:15:46;;;;;;;;;;;9.60;99.90;;;;;;5131227;28;19917;-72
2023/03/20 06:18:20;;;;;;;;;;;9.70;99.90;;;;;;5163905;28;20597;-70
2023/03/20 06:21:30;;;;;;;;;;;9.90;99.90;;;;;;5167575;28;19921;-68
2023/03/20 06:24:02;;;;;;;;;;;10.00;99.90;;;;;;5167925;28;19926;-72
2023/03/20 06:26:35;;;;;;;;;;;10.10;99.90;;;;;;5134697;28;19909;-69
2023/03/20 06:29:07;;;;;;;;;;;10.20;99.90;;;;;;5151012;28;19909;-74
2023/03/20 06:31:43;;;;;;;;;;;10.30;99.90;;;;;;5181389;28;20232;-69
2023/03/20 06:34:20;;;;;;;;;;;10.40;99.90;;;;;;5147078;28;19914;-72
2023/03/20 06:36:53;;;;;;;;;;;10.50;99.90;;;;;;5149362;28;19917;-72
2023/03/20 06:39:24;;;;;;;;;;;10.60;99.90;;;;;;5181663;28;19929;-72
2023/03/20 06:41:58;;;;;;;;;;;10.90;99.90;;;;;;5150852;28;19917;-68
2023/03/20 06:44:29;;;;;;;;;;;11.20;97.90;;;;;;5149322;28;19921;-71
2023/03/20 06:47:06;;;;;;;;;;;11.40;72.50;;;;;;5163326;28;20347;-70
2023/03/20 06:49:40;;;;;;;;;;;11.50;42.00;;;;;;5156236;28;19914;-69
2023/03/20 06:52:16;;;;;;;;;;;11.50;50.70;;;;;;5150272;28;19910;-71
2023/03/20 06:54:49;;;;;;;;;;;11.60;1.00;;;;;;5150172;28;20566;-70
2023/03/20 06:57:23;;;;;;;;;;;11.80;1.00;;;;;;5166916;28;19921;-68
2023/03/20 06:59:55;;;;;;;;;;;11.80;1.00;;;;;;5150067;28;19920;-70
2023/03/20 07:02:27;;;;;;;;;;;11.80;1.00;;;;;;5148057;28;19920;-73
2023/03/20 07:04:58;;;;;;;;;;;12.00;1.00;;;;;;5171230;28;19936;-70
2023/03/20 07:07:31;;;;;;;;;;;12.20;1.00;;;;;;5149249;28;19910;-67
2023/03/20 07:10:04;;;;;;;;;;;12.30;1.00;;;;;;5134072;28;20417;-71
2023/03/20 07:12:36;;;;;;;;;;;12.50;1.00;;;;;;5203673;28;19939;-74
2023/03/20 07:15:08;;;;;;;;;;;12.60;1.00;;;;;;5156297;28;19909;-72
2023/03/20 07:17:39;;;;;;;;;;;12.80;1.00;;;;;;5165509;28;19918;-72
2023/03/20 07:20:17;;;;;;;;;;;13.00;1.00;;;;;;5144527;28;19928;-69
2023/03/20 07:22:54;;;;;;;;;;;13.10;1.00;;;;;;5149691;28;19922;-71
2023/03/20 07:25:25;;;;;;;;;;;13.20;1.00;;;;;;5143122;28;20473;-68
2023/03/20 07:27:59;;;;;;;;;;;13.40;1.00;;;;;;5135441;28;20238;-67
2023/03/20 07:30:31;;;;;;;;;;;13.30;1.00;;;;;;5163551;28;19921;-70
2023/03/20 07:33:03;;;;;;;;;;;13.30;1.00;;;;;;5134337;28;20126;-69
2023/03/20 07:35:39;;;;;;;;;;;13.30;1.00;;;;;;5194301;28;19921;-73
2023/03/20 07:38:10;;;;;;;;;;;13.50;13.00;;;;;;5152531;28;19917;-69
2023/03/20 07:40:44;;;;;;;;;;;13.50;27.30;;;;;;5192370;28;19921;-73
2023/03/20 07:43:18;;;;;;;;;;;13.70;48.30;;;;;;5144715;28;20410;-69
2023/03/20 07:45:52;;;;;;;;;;;13.80;73.10;;;;;;5152209;28;19921;-73
2023/03/20 07:48:26;;;;;;;;;;;14.00;94.00;;;;;;5130039;28;19924;-71
2023/03/20 07:51:03;;;;;;;;;;;13.90;99.90;;;;;;5147689;28;19952;-71
2023/03/20 07:53:39;;;;;;;;;;;13.90;99.90;;;;;;5153592;28;20405;-74
2023/03/20 07:56:10;;;;;;;;;;;13.70;99.90;;;;;;5162261;28;19925;-73
2023/03/20 07:58:46;;;;;;;;;;;13.80;99.90;;;;;;5163429;28;19921;-69
2023/03/20 08:01:17;;;;;;;;;;;14.00;99.90;;;;;;5155286;28;19928;-69
2023/03/20 08:03:48;;;;;;;;;;;14.50;99.90;;;;;;5151757;28;20150;-74
2023/03/20 08:06:20;;;;;;;;;;;14.70;99.90;;;;;;5150068;28;19932;-71
2023/03/20 08:08:54;;;;;;;;;;;14.90;99.90;;;;;;5162333;28;19922;-74
2023/03/20 08:11:25;;;;;;;;;;;15.10;99.90;;;;;;5163530;28;19941;-70
2023/03/20 08:14:02;;;;;;;;;;;14.70;99.90;;;;;;5163467;28;19921;-69
2023/03/20 08:16:36;;;;;;;;;;;14.30;99.90;;;;;;5126436;28;19931;-68
2023/03/20 08:19:13;;;;;;;;;;;14.00;99.90;;;;;;5175500;28;19928;-73
2023/03/20 08:21:48;;;;;;;;;;;13.80;99.90;;;;;;5163141;28;19913;-74
2023/03/20 08:24:20;;;;;;;;;;;13.70;99.90;;;;;;5147960;28;19961;-72
2023/03/20 08:26:53;;;;;;;;;;;13.50;99.90;;;;;;5194980;28;19921;-68
2023/03/20 08:29:27;;;;;;;;;;;13.60;99.90;;;;;;5164288;28;20227;-69
2023/03/20 08:31:59;;;;;;;;;;;13.70;99.90;;;;;;5145485;28;19914;-73
2023/03/20 08:34:33;;;;;;;;;;;13.80;99.90;;;;;;5128149;28;19928;-69
2023/03/20 08:37:06;;;;;;;;;;;14.10;99.90;;;;;;5163831;28;19928;-71
2023/03/20 08:39:40;;;;;;;;;;;14.10;99.90;;;;;;5163982;28;19913;-69
2023/03/20 08:42:15;;;;;;;;;;;14.30;99.90;;;;;;5149000;28;19934;-71
2023/03/20 08:44:48;;;;;;;;;;;14.40;99.90;;;;;;5149154;28;19909;-70
2023/03/20 08:47:19;;;;;;;;;;;14.70;99.90;;;;;;5162526;28;19944;-74
2023/03/20 08:49:51;;;;;;;;;;;14.80;99.90;;;;;;5179872;28;19924;-70
2023/03/20 08:52:23;;;;;;;;;;;14.80;99.90;;;;;;5164525;28;19918;-74
2023/03/20 08:54:55;;;;;;;;;;;14.80;99.90;;;;;;5195974;28;20339;-73
2023/03/20 08:57:26;;;;;;;;;;;14.90;99.90;;;;;;5162613;28;19923;-66
2023/03/20 08:59:57;;;;;;;;;;;15.10;99.90;;;;;;5164416;28;19917;-71
2023/03/20 09:02:31;;;;;;;;;;;15.20;99.90;;;;;;5176508;28;19921;-67
2023/03/20 09:05:06;;;;;;;;;;;15.50;99.90;;;;;;5160279;28;20302;-71
2023/03/20 09:07:37;;;;;;;;;;;15.70;99.90;;;;;;5154894;28;19917;-71
2023/03/20 09:10:10;;;;;;;;;;;15.70;99.90;;;;;;5165864;28;19910;-69
2023/03/20 09:12:47;;;;;;;;;;;15.70;99.90;;;;;;5160395;28;20132;-72
2023/03/20 09:15:18;;;;;;;;;;;15.60;99.90;;;;;;5168297;28;19943;-71
2023/03/20 09:17:52;;;;;;;;;;;15.70;99.90;;;;;;5168432;28;19918;-69
2023/03/20 09:20:23;;;;;;;;;;;15.70;99.90;;;;;;5177105;28;19932;-69
2023/03/20 09:22:59;;;;;;;;;;;15.70;99.90;;;;;;5181704;28;20221;-74
2023/03/20 09:25:30;;;;;;;;;;;15.90;99.90;;;;;;5165942;28;19914;-72
2023/03/20 09:28:03;;;;;;;;;;;15.90;99.90;;;;;;5150015;28;19917;-72
2023/03/20 09:30:39;;;;;;;;;;;16.00;99.90;;;;;;5143677;28;19917;-70
2023/03/20 09:33:17;;;;;;;;;;;16.10;99.90;;;;;;5153220;28;20212;-68
2023/03/20 09:35:57;;;;;;;;;;;16.40;99.90;;;;;;5145553;28;19920;-69
2023/03/20 09:38:30;;;;;;;;;;;16.60;99.90;;;;;;5151851;28;19917;-71
2023/03/20 09:41:05;;;;;;;;;;;16.90;99.90;;;;;;5134762;28;19920;-69
2023/03/20 09:43:57;;;;;;;;;;;16.80;99.90;;;;;;5143937;28;19920;-67
2023/03/20 09:46:53;;;;;;;;;;;16.70;99.90;;;;;;5184582;28;19917;-70
2023/03/20 09:50:21;;;;;;;;;;;16.80;99.90;;;;;;5150707;28;19915;-71
2023/03/20 09:52:56;;;;;;;;;;;16.80;99.90;;;;;;5136731;28;19922;-74
2023/03/20 09:55:34;;;;;;;;;;;17.00;99.90;;;;;;5139940;28;20115;-67
2023/03/20 09:58:21;;;;;;;;;;;17.30;99.90;;;;;;5139770;28;19936;-72
2023/03/20 10:00:55;;;;;;;;;;;17.50;99.90;;;;;;5105864;28;20141;-70
2023/03/20 10:03:34;;;;;;;;;;;17.80;99.90;;;;;;5078901;28;1178466;-74
2023/03/20 10:06:14;;;;;;;;;;;18.00;99.90;;;;;;5131228;28;20207;-69
2023/03/20 10:08:48;;;;;;;;;;;18.20;99.90;;;;;;5141656;28;19921;-71
2023/03/20 10:12:11;;;;;;;;;;;17.90;99.90;;;;;;5125181;28;19910;-67
2023/03/20 10:15:11;;;;;;;;;;;17.70;99.90;;;;;;5088541;29;19918;-73
2023/03/20 10:18:11;;;;;;;;;;;17.90;99.90;;;;;;5108477;28;19918;-73
2023/03/20 10:20:54;;;;;;;;;;;17.90;99.90;;;;;;5099904;29;19917;-66
2023/03/20 10:23:35;;;;;;;;;;;17.80;99.90;;;;;;5126672;28;20199;-71
2023/03/20 10:26:18;;;;;;;;;;;17.90;99.90;;;;;;5101154;29;19910;-69
2023/03/20 10:29:01;;;;;;;;;;;17.90;99.90;;;;;;5104289;29;19922;-72
2023/03/20 10:31:36;;;;;;;;;;;18.20;99.90;;;;;;5087460;29;20341;-75
2023/03/20 10:34:29;;;;;;;;;;;19.00;99.90;;;;;;5110881;28;19925;-68
2023/03/20 10:37:36;;;;;;;;;;;19.40;99.90;;;;;;5110348;28;19957;-71
2023/03/20 10:40:31;;;;;;;;;;;19.20;99.90;;;;;;5105227;29;19918;-71
2023/03/20 10:43:08;;;;;;;;;;;19.70;99.90;;;;;;5131401;28;19923;-72
2023/03/20 10:45:44;;;;;;;;;;;20.40;99.90;;;;;;5086478;29;19911;-71
2023/03/20 10:48:37;;;;;;;;;;;20.40;99.90;;;;;;5113034;28;20104;-74
2023/03/20 10:51:15;;;;;;;;;;;20.30;99.90;;;;;;5194525;28;19939;-67
2023/03/20 10:53:53;;;;;;;;;;;19.70;99.90;;;;;;5202071;28;19917;-70
2023/03/20 10:56:35;;;;;;;;;;;19.40;99.90;;;;;;5155586;28;20079;-69
2023/03/20 10:59:11;;;;;;;;;;;19.00;99.90;;;;;;5137346;28;20098;-73
2023/03/20 11:01:42;;;;;;;;;;;18.90;99.90;;;;;;5163325;28;19928;-67
2023/03/20 11:04:19;;;;;;;;;;;18.80;99.90;;;;;;5154557;28;19924;-64
2023/03/20 11:07:25;;;;;;;;;;;18.90;99.90;;;;;;5163679;28;19928;-70
2023/03/20 11:10:06;;;;;;;;;;;19.50;99.90;;;;;;5150817;28;19909;-68
2023/03/20 11:12:47;;;;;;;;;;;20.50;99.90;;;;;;5183149;28;19917;-71
2023/03/20 11:15:34;;;;;;;;;;;21.30;99.90;;;;;;5161734;28;19923;-72
2023/03/20 11:18:12;;;;;;;;;;;21.10;99.90;;;;;;5166962;28;19927;-70
2023/03/20 11:20:54;;;;;;;;;;;20.70;99.90;;;;;;5150535;28;19917;-66
2023/03/20 11:23:36;;;;;;;;;;;21.40;99.90;;;;;;5181317;28;19920;-71
2023/03/20 11:26:15;;;;;;;;;;;22.00;99.90;;;;;;5167011;28;19925;-71
2023/03/20 11:28:49;;;;;;;;;;;21.60;99.90;;;;;;5165257;28;19924;-74
2023/03/20 11:31:37;;;;;;;;;;;21.70;99.90;;;;;;5177563;28;19909;-70
2023/03/20 11:34:22;;;;;;;;;;;20.70;99.90;;;;;;5163772;28;19918;-69
2023/03/20 11:36:59;;;;;;;;;;;21.10;99.90;;;;;;5196943;28;19921;-69
2023/03/20 11:39:36;;;;;;;;;;;22.00;99.90;;;;;;5148118;28;20012;-66
2023/03/20 11:42:22;;;;;;;;;;;22.50;99.90;;;;;;5149593;28;19917;-69
2023/03/20 11:45:03;;;;;;;;;;;23.30;99.90;;;;;;5148418;28;19928;-74
2023/03/20 11:47:37;;;;;;;;;;;23.60;99.90;;;;;;5142644;28;19909;-75
2023/03/20 11:50:28;;;;;;;;;;;21.90;99.90;;;;;;5164720;28;19924;-74
2023/03/20 11:53:04;;;;;;;;;;;20.30;99.90;;;;;;5164679;28;20424;-71
2023/03/20 11:55:36;;;;;;;;;;;21.10;99.90;;;;;;5164701;28;19917;-76
2023/03/20 11:58:13;;;;;;;;;;;23.00;99.90;;;;;;5164983;28;20068;-72
2023/03/20 12:00:49;;;;;;;;;;;22.70;99.90;;;;;;5146122;28;20095;-64
2023/03/20 12:03:43;;;;;;;;;;;22.00;99.90;;;;;;5132743;28;19928;-69
2023/03/20 12:06:18;;;;;;;;;;;21.90;99.90;;;;;;5152536;28;20118;-74
2023/03/20 12:08:58;;;;;;;;;;;23.90;99.90;;;;;;5173180;28;20400;-72
2023/03/20 12:11:43;;;;;;;;;;;23.60;99.90;;;;;;5164284;28;19923;-73
2023/03/20 12:14:38;;;;;;;;;;;21.10;99.90;;;;;;5132219;28;19917;-66
2023/03/20 12:17:50;;;;;;;;;;;21.00;99.90;;;;;;5178355;28;19917;-72
2023/03/20 12:20:47;;;;;;;;;;;21.90;99.90;;;;;;5144421;28;19921;-68
2023/03/20 12:23:48;;;;;;;;;;;21.00;99.90;;;;;;5180663;28;19939;-67
2023/03/20 12:26:38;;;;;;;;;;;19.50;99.90;;;;;;5147534;28;19928;-72
2023/03/20 12:29:20;;;;;;;;;;;19.50;99.90;;;;;;5196974;28;19917;-65
2023/03/20 12:31:59;;;;;;;;;;;19.20;99.90;;;;;;5170080;28;19933;-71
2023/03/20 12:34:42;;;;;;;;;;;19.00;99.90;;;;;;5146857;28;20304;-72
2023/03/20 12:37:17;;;;;;;;;;;18.40;99.90;;;;;;5179129;28;19921;-72
2023/03/20 12:39:52;;;;;;;;;;;18.20;99.90;;;;;;5162755;28;19918;-71
2023/03/20 12:42:55;;;;;;;;;;;17.90;99.90;;;;;;5165654;28;19928;-67
2023/03/20 12:45:40;;;;;;;;;;;18.00;99.90;;;;;;5177197;28;20147;-72
2023/03/20 12:48:32;;;;;;;;;;;17.40;99.90;;;;;;5179502;28;19924;-70
2023/03/20 12:51:15;;;;;;;;;;;17.80;99.90;;;;;;5181868;28;19917;-74
2023/03/20 12:53:52;;;;;;;;;;;20.00;99.90;;;;;;5181944;28;19913;-66
2023/03/20 12:56:28;;;;;;;;;;;20.60;99.90;;;;;;5163188;28;19917;-67
2023/03/20 12:59:06;;;;;;;;;;;21.40;99.90;;;;;;5162947;28;19909;-74
2023/03/20 13:01:54;;;;;;;;;;;21.80;99.90;;;;;;5194353;28;19909;-70
2023/03/20 13:04:45;;;;;;;;;;;21.80;99.90;;;;;;5157094;28;19913;-71
2023/03/20 13:07:21;;;;;;;;;;;22.50;99.90;;;;;;5160360;28;19917;-69
2023/03/20 13:10:07;;;;;;;;;;;21.20;99.90;;;;;;5145402;28;20221;-72
2023/03/20 13:12:46;;;;;;;;;;;20.80;99.90;;;;;;5164905;28;19914;-74
2023/03/20 13:15:24;;;;;;;;;;;19.80;99.90;;;;;;5144900;28;20162;-72
2023/03/20 13:18:15;;;;;;;;;;;20.40;99.90;;;;;;5148329;28;20155;-70
2023/03/20 13:20:55;;;;;;;;;;;22.10;99.90;;;;;;5194960;28;19921;-71
2023/03/20 13:23:42;;;;;;;;;;;24.40;99.90;;;;;;5161992;28;19921;-70
2023/03/20 13:26:22;;;;;;;;;;;23.80;99.90;;;;;;5161107;28;20206;-70
2023/03/20 13:29:04;;;;;;;;;;;22.00;99.90;;;;;;5120061;28;19925;-71
2023/03/20 13:32:02;;;;;;;;;;;21.10;99.90;;;;;;5172250;28;20138;-71
2023/03/20 13:34:55;;;;;;;;;;;20.40;99.90;;;;;;5178003;28;20222;-69
2023/03/20 13:37:34;;;;;;;;;;;19.90;99.90;;;;;;5189764;28;19923;-70
2023/03/20 13:40:27;;;;;;;;;;;19.30;99.90;;;;;;5164342;28;19928;-71
2023/03/20 13:43:25;;;;;;;;;;;19.10;99.90;;;;;;5145129;28;19922;-70
2023/03/20 13:46:12;;;;;;;;;;;18.90;99.90;;;;;;5172281;28;19923;-68
2023/03/20 13:48:44;;;;;;;;;;;18.70;99.90;;;;;;5148127;28;19923;-66
2023/03/20 13:51:36;;;;;;;;;;;18.50;99.90;;;;;;5123161;28;19954;-68
2023/03/20 13:54:46;;;;;;;;;;;18.40;99.90;;;;;;5135178;28;19918;-69
2023/03/20 13:58:03;;;;;;;;;;;18.50;99.90;;;;;;5122594;28;19913;-70
2023/03/20 14:01:21;;;;;;;;;;;18.40;99.90;;;;;;5085791;28;20178;-70
2023/03/20 14:03:55;;;;;;;;;;;18.40;99.90;;;;;;5110424;28;19921;-73
2023/03/20 14:06:29;;;;;;;;;;;18.50;99.90;;;;;;5084816;28;20407;-70
2023/03/20 14:09:00;;;;;;;;;;;18.40;99.90;;;;;;5142009;28;19914;-68
2023/03/20 14:11:35;;;;;;;;;;;18.80;99.90;;;;;;5142002;28;19910;-70
2023/03/20 14:14:24;;;;;;;;;;;18.90;99.90;;;;;;5108457;28;19918;-70
2023/03/20 14:17:06;;;;;;;;;;;19.00;99.90;;;;;;5122353;28;19944;-69
2023/03/20 14:19:38;;;;;;;;;;;19.80;99.90;;;;;;5107897;28;20013;-69
2023/03/20 14:22:24;;;;;;;;;;;19.40;99.90;;;;;;5142604;28;20155;-73
2023/03/20 14:25:06;;;;;;;;;;;19.70;99.90;;;;;;5168832;28;19925;-68
2023/03/20 14:28:12;;;;;;;;;;;21.40;99.90;;;;;;5151535;28;20193;-71
2023/03/20 14:30:45;;;;;;;;;;;22.20;99.90;;;;;;5150012;28;20249;-72
2023/03/20 14:33:17;;;;;;;;;;;21.80;99.90;;;;;;5174368;28;19917;-75
2023/03/20 14:36:15;;;;;;;;;;;22.20;99.90;;;;;;5173466;28;19952;-74
2023/03/20 14:39:04;;;;;;;;;;;22.30;99.90;;;;;;5149631;28;19936;-75
2023/03/20 14:42:14;;;;;;;;;;;21.50;99.90;;;;;;5155606;28;19917;-74
2023/03/20 14:45:15;;;;;;;;;;;22.70;99.90;;;;;;5131800;28;19918;-72
2023/03/20 14:47:53;;;;;;;;;;;22.40;99.90;;;;;;5115851;28;19914;-73
2023/03/20 14:50:33;;;;;;;;;;;20.90;99.90;;;;;;5113404;28;20367;-73
2023/03/20 14:53:21;;;;;;;;;;;19.90;99.90;;;;;;5101843;28;19921;-71
2023/03/20 14:55:55;;;;;;;;;;;19.10;99.90;;;;;;5116066;28;19918;-68
2023/03/20 14:58:26;;;;;;;;;;;18.50;99.90;;;;;;5114649;28;20298;-72
2023/03/20 15:01:28;;;;;;;;;;;18.30;99.90;;;;;;5095690;28;19910;-72
2023/03/20 15:04:03;;;;;;;;;;;18.30;99.90;;;;;;5103273;28;20453;-71
2023/03/20 15:06:43;;;;;;;;;;;18.20;99.90;;;;;;5085194;28;19926;-71
2023/03/20 15:09:22;;;;;;;;;;;17.90;99.90;;;;;;5115683;28;19913;-73
2023/03/20 15:11:58;;;;;;;;;;;17.40;99.90;;;;;;5115860;28;19909;-70
2023/03/20 15:14:33;;;;;;;;;;;17.60;99.90;;;;;;5129384;28;19918;-69
2023/03/20 15:17:06;;;;;;;;;;;17.50;99.90;;;;;;5098080;28;19910;-72
2023/03/20 15:19:41;;;;;;;;;;;17.40;99.90;;;;;;5160938;28;19928;-74
2023/03/20 15:22:20;;;;;;;;;;;17.40;99.90;;;;;;5169118;28;20214;-67
2023/03/20 15:24:55;;;;;;;;;;;17.60;99.90;;;;;;5156208;28;19918;-71
2023/03/20 15:27:29;;;;;;;;;;;17.30;99.90;;;;;;5190211;28;19917;-71
2023/03/20 15:30:01;;;;;;;;;;;17.10;99.90;;;;;;5156936;28;20087;-71
2023/03/20 15:32:35;;;;;;;;;;;16.90;99.90;;;;;;5152263;28;19921;-70
2023/03/20 15:35:07;;;;;;;;;;;16.80;99.90;;;;;;5171548;28;19986;-71
2023/03/20 15:37:38;;;;;;;;;;;17.00;99.90;;;;;;5123529;28;19913;-73